Time;durP1;ratioP1;P1;durP2;ratioP2;P2;SDS_P1;SDS_P2;PMS_P1;PMS_P2;Temp;Humidity;BMP_temperature;BMP_pressure;BME280_temperature;BME280_humidity;BME280_pressure;Samples;Min_cycle;Max_cycle;Signal;HPM_P1;HPM_P2
2021/03/16 00:00:51;;;;;;;37.69;22.15;;;;;;;7.15;70.80;98247.89;333734;108;2593998;-70
2021/03/16 00:02:15;;;;;;;34.92;22.12;;;;;;;7.17;70.77;98243.09;368797;108;1963025;-70
2021/03/16 00:03:24;;;;;;;33.18;21.46;;;;;;;7.18;70.67;98245.57;320450;106;2810773;-69
2021/03/16 00:04:31;;;;;;;40.93;22.81;;;;;;;7.21;70.76;98238.95;365277;110;1961953;-71
2021/03/16 00:05:44;;;;;;;38.37;22.84;;;;;;;7.22;70.58;98237.89;293393;109;2280994;-70
2021/03/16 00:06:53;;;;;;;42.28;22.87;;;;;;;7.22;70.53;98241.42;362658;108;1961985;-70
2021/03/16 00:07:59;;;;;;;35.23;22.34;;;;;;;7.22;70.49;98241.42;366514;108;1964042;-69
2021/03/16 00:09:06;;;;;;;37.54;20.97;;;;;;;7.22;70.52;98241.42;366222;109;1961899;-70
2021/03/16 00:10:13;;;;;;;32.14;21.65;;;;;;;7.24;70.56;98239.31;364846;108;1961969;-70
2021/03/16 00:11:18;;;;;;;31.72;20.51;;;;;;;7.24;70.57;98250.06;365419;108;1962824;-70
2021/03/16 00:12:25;;;;;;;32.93;20.62;;;;;;;7.27;70.55;98235.38;367304;108;1962054;-70
2021/03/16 00:13:31;;;;;;;38.56;22.76;;;;;;;7.30;70.45;98239.48;310990;109;2161011;-70
2021/03/16 00:14:36;;;;;;;37.46;21.85;;;;;;;7.31;70.36;98233.91;344430;108;1960991;-70
2021/03/16 00:15:41;;;;;;;38.04;20.87;;;;;;;7.32;70.25;98235.53;364099;108;1963866;-71
2021/03/16 00:16:48;;;;;;;36.10;20.89;;;;;;;7.35;70.19;98231.59;365184;108;1963003;-70
2021/03/16 00:17:53;;;;;;;32.27;20.86;;;;;;;7.36;70.09;98238.63;365722;108;1962072;-71
2021/03/16 00:18:59;;;;;;;34.42;20.71;;;;;;;7.34;70.13;98241.52;364617;108;1962000;-71
2021/03/16 00:20:05;;;;;;;35.76;21.29;;;;;;;7.37;70.15;98237.57;366943;108;1961850;-71
2021/03/16 00:21:11;;;;;;;40.99;25.19;;;;;;;7.38;69.94;98237.36;365331;108;1961963;-71
2021/03/16 00:22:17;;;;;;;45.09;27.52;;;;;;;7.38;70.02;98233.83;315182;108;2831008;-70
2021/03/16 00:23:22;;;;;;;52.44;28.97;;;;;;;7.38;70.14;98231.98;332244;108;1961971;-70
2021/03/16 00:24:27;;;;;;;47.99;27.87;;;;;;;7.37;70.11;98243.76;350131;108;1964027;-70
2021/03/16 00:25:33;;;;;;;46.55;28.18;;;;;;;7.33;70.13;98236.35;357560;108;1962024;-69
2021/03/16 00:26:40;;;;;;;48.47;29.30;;;;;;;7.30;70.15;98242.17;365812;108;1961994;-69
2021/03/16 00:27:45;;;;;;;45.69;28.23;;;;;;;7.26;70.20;98245.30;364225;108;1961944;-69
2021/03/16 00:28:52;;;;;;;44.04;27.81;;;;;;;7.24;70.28;98241.19;362688;109;1962015;-70
2021/03/16 00:29:58;;;;;;;48.28;27.87;;;;;;;7.23;70.34;98248.42;330270;108;2621015;-70
2021/03/16 00:31:14;;;;;;;50.54;29.31;;;;;;;7.23;70.18;98251.11;345325;108;1960675;-70
2021/03/16 00:32:19;;;;;;;49.61;29.69;;;;;;;7.22;70.23;98246.80;355742;111;1961970;-70
2021/03/16 00:33:25;;;;;;;48.86;30.17;;;;;;;7.19;70.23;98246.39;359605;110;1962041;-70
2021/03/16 00:34:30;;;;;;;46.55;29.21;;;;;;;7.15;70.35;98246.02;354015;112;1961859;-69
2021/03/16 00:35:36;;;;;;;51.27;29.06;;;;;;;7.10;70.57;98248.53;350776;113;1962986;-69
2021/03/16 00:36:44;;;;;;;47.91;31.02;;;;;;;7.10;70.69;98253.09;300246;113;2907974;-70
2021/03/16 00:37:51;;;;;;;52.52;29.43;;;;;;;7.09;70.62;98252.23;358619;110;1962906;-69
2021/03/16 00:38:56;;;;;;;48.71;29.12;;;;;;;7.05;70.79;98246.49;351905;114;1963956;-69
2021/03/16 00:40:01;;;;;;;52.13;30.21;;;;;;;7.05;70.79;98249.17;358939;111;1961916;-70
2021/03/16 00:41:06;;;;;;;49.84;30.48;;;;;;;7.04;70.85;98249.41;369162;107;1964926;-69
2021/03/16 00:42:12;;;;;;;48.83;29.84;;;;;;;7.02;70.96;98248.80;368981;107;1961917;-68
2021/03/16 00:43:18;;;;;;;49.36;28.78;;;;;;;7.00;71.06;98249.01;368836;108;1961945;-70
2021/03/16 00:44:23;;;;;;;53.06;28.69;;;;;;;6.99;71.11;98246.56;360151;110;1961965;-69
2021/03/16 00:45:28;;;;;;;42.91;28.02;;;;;;;6.97;71.23;98251.31;353877;112;1962040;-69
2021/03/16 00:46:36;;;;;;;48.47;28.13;;;;;;;6.97;71.35;98252.13;314141;110;2090004;-70
2021/03/16 00:47:42;;;;;;;51.19;28.59;;;;;;;6.98;71.39;98247.58;367239;110;1962011;-69
2021/03/16 00:48:47;;;;;;;46.89;26.96;;;;;;;6.98;71.37;98253.77;369652;107;1964024;-70
2021/03/16 00:49:53;;;;;;;44.49;26.66;;;;;;;7.00;71.36;98250.88;368929;107;1962013;-70
2021/03/16 00:50:58;;;;;;;47.52;27.13;;;;;;;7.01;71.36;98252.51;359754;110;1964988;-69
2021/03/16 00:52:06;;;;;;;45.68;28.04;;;;;;;7.03;71.27;98255.80;326606;112;2483946;-70
2021/03/16 00:53:13;;;;;;;46.33;27.76;;;;;;;7.03;71.23;98253.13;354344;112;1962011;-70
2021/03/16 00:54:20;;;;;;;46.89;26.52;;;;;;;7.04;71.25;98246.73;361250;110;1961960;-70
2021/03/16 00:55:27;;;;;;;49.09;28.24;;;;;;;7.07;71.23;98254.34;327160;113;2885972;-68
2021/03/16 00:56:34;;;;;;;44.28;27.09;;;;;;;7.06;71.23;98250.00;356817;111;1961978;-70
2021/03/16 00:57:39;;;;;;;45.72;26.63;;;;;;;7.08;71.25;98250.61;364300;109;1961995;-70
2021/03/16 00:58:45;;;;;;;42.56;25.80;;;;;;;7.10;71.07;98251.22;370133;107;1962930;-70
2021/03/16 00:59:50;;;;;;;50.14;29.09;;;;;;;7.12;71.09;98250.98;369021;107;1964047;-68
2021/03/16 01:00:59;;;;;;;46.84;27.75;;;;;;;7.13;70.95;98250.78;310773;107;2173961;-70
2021/03/16 01:02:05;;;;;;;50.76;28.47;;;;;;;7.12;70.91;98242.92;367206;107;1960852;-71
2021/03/16 01:03:10;;;;;;;47.91;27.06;;;;;;;7.13;70.99;98245.41;364638;107;1961941;-70
2021/03/16 01:04:16;;;;;;;50.55;28.95;;;;;;;7.14;71.03;98241.66;368986;107;1962055;-69
2021/03/16 01:05:22;;;;;;;46.26;28.17;;;;;;;7.16;70.87;98239.59;370324;107;1961889;-70
2021/03/16 01:06:28;;;;;;;49.17;28.35;;;;;;;7.16;70.80;98241.46;339403;108;2451932;-69
2021/03/16 01:07:34;;;;;;;46.36;27.59;;;;;;;7.17;70.73;98243.09;332098;107;1978942;-69
2021/03/16 01:08:39;;;;;;;49.17;27.89;;;;;;;7.17;70.75;98238.57;338250;107;1963966;-70
2021/03/16 01:09:45;;;;;;;45.26;28.39;;;;;;;7.15;70.70;98239.83;369343;107;1964934;-70
2021/03/16 01:10:53;;;;;;;43.23;27.23;;;;;;;7.14;70.53;98241.66;368684;107;1963014;-70
2021/03/16 01:11:59;;;;;;;42.94;26.04;;;;;;;7.12;70.63;98234.87;328771;107;2681064;-69
2021/03/16 01:13:04;;;;;;;44.34;26.39;;;;;;;7.12;70.79;98232.19;329996;107;2011010;-70
2021/03/16 01:14:10;;;;;;;45.83;29.04;;;;;;;7.11;70.76;98233.23;322407;107;2063089;-70
2021/03/16 01:15:16;;;;;;;41.03;24.89;;;;;;;7.10;70.71;98235.11;369457;107;1962022;-70
2021/03/16 01:16:24;;;;;;;43.73;25.69;;;;;;;7.09;70.58;98238.81;369133;107;1962996;-70
2021/03/16 01:17:30;;;;;;;42.34;24.90;;;;;;;7.09;70.65;98238.81;317774;107;2885991;-70
2021/03/16 01:18:35;;;;;;;36.26;24.10;;;;;;;7.10;70.68;98232.42;345389;107;1961947;-70
2021/03/16 01:19:41;;;;;;;42.28;25.01;;;;;;;7.10;70.59;98229.73;346944;107;1961010;-70
2021/03/16 01:20:57;;;;;;;37.70;22.73;;;;;;;7.10;70.44;98232.42;369658;107;1962975;-69
2021/03/16 01:22:04;;;;;;;42.28;22.12;;;;;;;7.11;70.42;98234.05;373897;106;1961995;-71
2021/03/16 01:23:09;;;;;;;34.02;21.78;;;;;;;7.12;70.29;98232.19;372132;106;1962012;-69
2021/03/16 01:24:17;;;;;;;39.62;24.20;;;;;;;7.12;70.29;98229.50;348774;109;1961983;-70
2021/03/16 01:25:24;;;;;;;35.78;23.27;;;;;;;7.13;70.32;98217.73;370393;109;1961969;-70
2021/03/16 01:26:30;;;;;;;34.02;22.75;;;;;;;7.15;70.23;98224.53;369522;109;1962049;-70
2021/03/16 01:27:36;;;;;;;36.98;22.32;;;;;;;7.12;69.97;98227.66;367872;108;1962935;-69
2021/03/16 01:28:41;;;;;;;38.74;24.07;;;;;;;7.13;70.08;98226.61;333120;109;2610979;-70
2021/03/16 01:29:47;;;;;;;33.96;21.92;;;;;;;7.16;70.01;98222.66;329798;108;2020939;-70
2021/03/16 01:30:54;;;;;;;34.92;21.86;;;;;;;7.13;69.81;98215.87;369130;109;1961983;-70
2021/03/16 01:32:01;;;;;;;37.88;22.94;;;;;;;7.09;69.79;98214.64;369691;108;1961986;-70
2021/03/16 01:33:07;;;;;;;34.34;22.13;;;;;;;7.07;69.71;98221.30;343212;108;2417003;-69
2021/03/16 01:34:12;;;;;;;39.09;22.92;;;;;;;7.04;69.95;98228.75;338620;109;1963968;-70
2021/03/16 01:35:17;;;;;;;37.50;23.34;;;;;;;7.00;69.94;98227.53;358090;109;1962860;-70
2021/03/16 01:36:23;;;;;;;40.25;23.33;;;;;;;6.91;69.88;98228.84;370798;109;1963891;-70
2021/03/16 01:37:30;;;;;;;37.83;24.30;;;;;;;6.83;70.04;98219.20;366032;109;1962023;-70
2021/03/16 01:38:35;;;;;;;34.01;22.43;;;;;;;6.73;70.24;98218.85;367826;106;1963006;-71
2021/03/16 01:39:40;;;;;;;37.54;21.59;;;;;;;6.63;70.55;98221.18;362505;111;1963002;-70
2021/03/16 01:40:46;;;;;;;34.91;20.10;;;;;;;6.56;70.67;98215.88;298774;109;2221301;-70
2021/03/16 01:41:52;;;;;;;35.15;21.33;;;;;;;6.53;70.79;98216.28;338125;109;1961937;-70
2021/03/16 01:43:13;;;;;;;34.89;20.44;;;;;;;6.55;70.39;98213.39;345364;109;1961925;-70
2021/03/16 01:44:18;;;;;;;41.45;22.80;;;;;;;6.55;70.60;98218.76;354778;112;1961988;-69
2021/03/16 01:45:23;;;;;;;41.84;24.28;;;;;;;6.57;70.55;98216.69;364503;108;1960873;-70
2021/03/16 01:46:29;;;;;;;40.64;25.53;;;;;;;6.57;70.62;98222.88;363436;108;1962966;-70
2021/03/16 01:47:35;;;;;;;39.38;24.33;;;;;;;6.57;70.78;98220.19;360734;110;1963999;-70
2021/03/16 01:48:41;;;;;;;40.02;24.69;;;;;;;6.58;71.02;98221.00;366763;106;1961827;-70
2021/03/16 01:49:47;;;;;;;41.97;25.41;;;;;;;6.59;71.04;98220.80;361070;110;2917911;-70
2021/03/16 01:50:54;;;;;;;38.56;25.23;;;;;;;6.62;71.08;98218.73;368639;108;1962051;-71
2021/03/16 01:52:09;;;;;;;40.99;26.71;;;;;;;6.63;71.11;98213.13;375607;108;1961937;-69
2021/03/16 01:53:15;;;;;;;37.84;23.81;;;;;;;6.66;71.06;98211.88;372174;108;1962004;-69
2021/03/16 01:54:20;;;;;;;39.09;24.53;;;;;;;6.69;70.93;98214.12;366612;108;1961976;-70
2021/03/16 01:55:28;;;;;;;36.54;24.16;;;;;;;6.69;70.90;98214.94;365772;109;1962047;-69
2021/03/16 01:56:38;;;;;;;39.72;24.82;;;;;;;6.71;70.97;98217.42;368220;108;1962011;-68
2021/03/16 01:58:03;;;;;;;36.11;22.92;;;;;;;6.74;70.96;98216.98;367834;108;1961983;-68
2021/03/16 01:59:28;;;;;;;37.77;22.19;;;;;;;6.75;70.59;98216.78;363383;110;1962033;-69
2021/03/16 02:00:51;;;;;;;37.81;22.90;;;;;;;6.76;70.59;98214.91;367629;108;1961977;-71
2021/03/16 02:02:15;;;;;;;41.44;24.32;;;;;;;6.79;70.36;98217.16;363814;110;1961999;-70
2021/03/16 02:03:40;;;;;;;36.97;23.44;;;;;;;6.81;70.32;98215.09;367473;108;1961417;-70
2021/03/16 02:05:09;;;;;;;38.78;23.47;;;;;;;6.80;70.10;98210.73;326452;109;2014029;-71
2021/03/16 02:06:45;;;;;;;37.06;23.12;;;;;;;6.77;70.13;98212.02;356321;105;1961978;-70
2021/03/16 02:08:38;;;;;;;40.56;24.19;;;;;;;6.79;70.24;98212.61;320646;110;2679028;-68
2021/03/16 02:10:08;;;;;;;38.11;24.33;;;;;;;6.77;70.23;98211.18;352262;112;1963001;-69
2021/03/16 02:11:42;;;;;;;38.26;23.04;;;;;;;6.77;70.19;98219.23;354917;112;1962006;-70
2021/03/16 02:13:13;;;;;;;38.85;23.55;;;;;;;6.76;70.23;98209.55;356473;112;1962003;-70
2021/03/16 02:14:44;;;;;;;36.51;22.65;;;;;;;6.74;70.26;98215.12;357468;112;1962975;-70
2021/03/16 02:16:11;;;;;;;37.31;23.42;;;;;;;6.72;70.35;98209.17;355101;112;1962063;-69
2021/03/16 02:17:37;;;;;;;37.43;22.51;;;;;;;6.73;70.27;98215.35;311180;112;2050987;-70
2021/03/16 02:19:03;;;;;;;36.01;22.01;;;;;;;6.73;70.07;98212.66;338314;112;1962009;-70
2021/03/16 02:20:31;;;;;;;35.97;22.56;;;;;;;6.68;70.12;98215.99;354986;114;1962032;-70
2021/03/16 02:21:56;;;;;;;37.15;21.74;;;;;;;6.67;70.19;98213.52;355559;114;1961997;-69
2021/03/16 02:23:41;;;;;;;31.32;21.32;;;;;;;6.63;70.23;98215.81;356078;112;1962020;-69
2021/03/16 02:25:14;;;;;;;34.43;19.83;;;;;;;6.63;70.13;98210.45;354307;113;1961118;-70
2021/03/16 02:26:49;;;;;;;39.18;22.08;;;;;;;6.58;70.08;98216.45;356914;112;1961969;-69
2021/03/16 02:28:50;;;;;;;35.42;20.83;;;;;;;6.56;70.14;98210.50;340435;112;1961890;-69
2021/03/16 02:30:17;;;;;;;33.43;20.16;;;;;;;6.55;70.16;98216.89;357723;112;1961996;-69
2021/03/16 02:31:45;;;;;;;31.83;19.07;;;;;;;6.56;70.14;98212.34;356171;112;1962011;-70
2021/03/16 02:33:12;;;;;;;31.60;19.29;;;;;;;6.59;69.97;98211.94;358416;111;1962987;-71
2021/03/16 02:34:40;;;;;;;29.56;19.26;;;;;;;6.60;69.92;98209.02;355549;112;1961933;-70
2021/03/16 02:36:06;;;;;;;32.59;21.53;;;;;;;6.64;69.93;98217.45;352792;113;1963003;-70
2021/03/16 02:37:33;;;;;;;29.73;19.08;;;;;;;6.63;69.38;98215.81;353371;113;1961924;-69
2021/03/16 02:39:00;;;;;;;28.99;21.60;;;;;;;6.57;69.69;98211.33;315378;112;2041448;-69
2021/03/16 02:40:27;;;;;;;37.68;23.03;;;;;;;6.43;69.78;98215.95;356608;112;1961886;-69
2021/03/16 02:41:52;;;;;;;32.77;21.66;;;;;;;6.31;69.78;98217.66;323338;112;2612950;-69
2021/03/16 02:43:17;;;;;;;38.79;23.92;;;;;;;6.19;70.14;98216.67;305842;112;2125085;-69
2021/03/16 02:44:42;;;;;;;30.38;20.37;;;;;;;6.07;70.55;98211.16;316813;112;2714942;-70
2021/03/16 02:46:08;;;;;;;29.21;20.14;;;;;;;5.96;70.75;98214.52;349702;112;1964873;-69
2021/03/16 02:47:32;;;;;;;29.11;19.48;;;;;;;5.87;71.00;98212.01;350654;114;1961926;-69
2021/03/16 02:48:58;;;;;;;27.77;18.63;;;;;;;5.87;71.18;98217.37;300825;112;2128890;-69
2021/03/16 02:50:23;;;;;;;30.10;18.98;;;;;;;5.89;71.07;98215.31;355082;112;1961898;-69
2021/03/16 02:51:53;;;;;;;26.74;17.92;;;;;;;5.92;70.89;98212.20;358603;112;1961780;-69
2021/03/16 02:53:18;;;;;;;25.55;17.34;;;;;;;5.94;70.96;98212.85;329391;115;1961946;-70
2021/03/16 02:54:43;;;;;;;27.38;17.06;;;;;;;5.92;70.93;98208.70;345327;113;1961960;-69
2021/03/16 02:56:10;;;;;;;26.30;16.91;;;;;;;6.00;70.91;98213.86;353186;113;1964036;-71
2021/03/16 02:57:38;;;;;;;27.94;18.67;;;;;;;6.01;70.76;98214.70;350955;113;1963969;-70
2021/03/16 02:59:07;;;;;;;26.23;17.24;;;;;;;6.01;70.76;98212.84;318330;112;1970029;-70
2021/03/16 03:00:33;;;;;;;27.21;16.25;;;;;;;6.03;70.81;98209.93;327066;112;2482004;-70
2021/03/16 03:02:00;;;;;;;25.42;17.56;;;;;;;6.04;70.74;98208.91;300005;112;2147969;-68
2021/03/16 03:03:24;;;;;;;26.04;17.72;;;;;;;6.05;70.53;98200.64;351758;111;1962920;-70
2021/03/16 03:04:49;;;;;;;25.57;16.35;;;;;;;6.06;70.57;98207.67;357083;112;1962041;-70
2021/03/16 03:06:15;;;;;;;23.78;16.17;;;;;;;6.06;70.42;98210.34;356501;112;1962944;-70
2021/03/16 03:07:41;;;;;;;26.63;17.01;;;;;;;6.06;70.44;98213.03;353734;113;1961989;-70
2021/03/16 03:09:07;;;;;;;23.15;15.21;;;;;;;6.05;70.37;98205.19;351953;113;1964027;-69
2021/03/16 03:10:32;;;;;;;24.11;15.28;;;;;;;6.02;70.54;98208.30;353028;113;1962018;-69
2021/03/16 03:11:55;;;;;;;27.23;16.86;;;;;;;6.03;70.64;98202.70;354459;112;1962941;-70
2021/03/16 03:13:19;;;;;;;24.44;16.74;;;;;;;6.06;70.44;98210.34;351067;112;1962006;-71
2021/03/16 03:14:43;;;;;;;25.14;17.16;;;;;;;6.07;70.00;98200.44;312497;112;2024043;-70
2021/03/16 03:16:08;;;;;;;25.25;16.73;;;;;;;6.07;70.19;98205.80;314969;112;2661939;-69
2021/03/16 03:17:33;;;;;;;27.37;17.45;;;;;;;6.07;70.09;98200.44;354009;112;1963987;-69
2021/03/16 03:18:57;;;;;;;25.53;18.18;;;;;;;6.07;70.12;98203.13;353469;112;1961977;-72
2021/03/16 03:20:23;;;;;;;24.24;16.81;;;;;;;6.09;69.96;98195.70;354621;112;1963013;-70
2021/03/16 03:21:54;;;;;;;28.16;18.52;;;;;;;6.10;69.84;98197.33;356168;112;1963927;-69
2021/03/16 03:23:22;;;;;;;25.39;17.72;;;;;;;6.09;69.80;98193.84;310224;116;2562053;-69
2021/03/16 03:24:49;;;;;;;29.87;19.63;;;;;;;6.07;69.71;98200.44;354001;112;1961876;-69
2021/03/16 03:26:19;;;;;;;30.15;20.09;;;;;;;6.00;69.83;98194.28;356288;112;1961998;-69
2021/03/16 03:27:48;;;;;;;31.91;21.01;;;;;;;5.87;69.92;98203.97;355965;112;1961915;-69
2021/03/16 03:29:13;;;;;;;32.34;20.32;;;;;;;5.76;70.16;98196.59;354542;112;1962960;-70
2021/03/16 03:30:38;;;;;;;28.60;19.68;;;;;;;5.64;70.55;98199.12;296579;112;2175962;-70
2021/03/16 03:32:04;;;;;;;29.06;19.28;;;;;;;5.54;70.76;98206.76;345928;112;2949985;-69
2021/03/16 03:33:31;;;;;;;30.13;19.01;;;;;;;5.49;70.86;98206.56;353386;112;1964073;-69
2021/03/16 03:34:56;;;;;;;29.55;19.18;;;;;;;5.48;70.92;98203.06;353211;112;1963898;-71
2021/03/16 03:36:24;;;;;;;27.85;18.74;;;;;;;5.51;70.85;98207.19;321409;112;2586054;-69
2021/03/16 03:37:49;;;;;;;29.28;19.82;;;;;;;5.56;70.81;98202.02;315119;112;1986779;-69
2021/03/16 03:39:14;;;;;;;30.26;19.67;;;;;;;5.61;70.80;98209.41;336305;112;1962004;-69
2021/03/16 03:40:45;;;;;;;28.63;18.91;;;;;;;5.65;70.41;98200.75;355473;112;1961968;-69
2021/03/16 03:42:10;;;;;;;30.07;18.79;;;;;;;5.69;70.34;98204.67;374361;107;1961966;-70
2021/03/16 03:43:36;;;;;;;29.16;18.69;;;;;;;5.74;70.14;98201.33;369570;107;1962029;-69
2021/03/16 03:45:13;;;;;;;28.22;17.97;;;;;;;5.77;69.90;98200.94;370440;109;1961947;-70
2021/03/16 03:46:40;;;;;;;28.90;19.56;;;;;;;5.80;69.85;98203.19;347290;109;2304931;-69
2021/03/16 03:48:08;;;;;;;31.23;19.84;;;;;;;5.83;69.72;98199.27;363195;109;1963006;-69
2021/03/16 03:49:33;;;;;;;28.99;19.41;;;;;;;5.82;69.58;98200.28;364748;110;1961958;-69
2021/03/16 03:50:59;;;;;;;29.91;22.06;;;;;;;5.76;69.51;98196.59;338682;110;2408013;-70
2021/03/16 03:52:24;;;;;;;32.27;22.34;;;;;;;5.61;69.47;98202.22;362010;109;1964021;-70
2021/03/16 03:53:49;;;;;;;32.52;23.08;;;;;;;5.48;69.79;98202.25;362909;109;1961996;-69
2021/03/16 03:55:15;;;;;;;34.71;22.19;;;;;;;5.35;70.11;98204.95;366864;109;1963973;-68
2021/03/16 03:56:43;;;;;;;29.67;20.45;;;;;;;5.23;70.46;98204.73;325890;109;1963892;-69
2021/03/16 03:58:09;;;;;;;28.84;18.78;;;;;;;5.11;70.59;98203.70;364387;109;1962027;-70
2021/03/16 03:59:33;;;;;;;27.54;18.90;;;;;;;5.02;70.78;98203.92;365102;109;1963973;-70
2021/03/16 04:00:57;;;;;;;27.21;17.38;;;;;;;5.00;70.95;98200.66;354974;109;1963729;-70
2021/03/16 04:02:21;;;;;;;24.92;18.10;;;;;;;5.01;71.03;98210.31;302792;109;2174944;-69
2021/03/16 04:03:46;;;;;;;26.83;16.54;;;;;;;5.05;70.87;98200.86;358663;109;2890921;-70
2021/03/16 04:05:15;;;;;;;27.76;18.09;;;;;;;5.07;70.92;98203.31;365063;110;1961907;-69
2021/03/16 04:06:41;;;;;;;25.89;15.79;;;;;;;5.12;70.83;98200.84;365018;109;1962964;-71
2021/03/16 04:08:07;;;;;;;24.44;16.49;;;;;;;5.15;70.59;98200.42;364995;109;1961964;-70
2021/03/16 04:09:32;;;;;;;26.10;17.43;;;;;;;5.18;70.43;98197.32;327645;110;2589956;-69
2021/03/16 04:10:59;;;;;;;21.73;15.19;;;;;;;5.20;70.42;98194.45;315122;109;2859981;-70
2021/03/16 04:12:23;;;;;;;24.94;16.32;;;;;;;5.24;70.33;98191.16;364239;109;1961944;-69
2021/03/16 04:13:49;;;;;;;24.79;16.16;;;;;;;5.25;70.09;98198.15;359075;109;1962015;-70
2021/03/16 04:15:15;;;;;;;24.24;15.15;;;;;;;5.29;70.07;98190.52;367617;109;1961942;-69
2021/03/16 04:16:42;;;;;;;24.78;15.57;;;;;;;5.35;69.87;98195.05;366471;110;1963943;-70
2021/03/16 04:18:06;;;;;;;24.07;16.68;;;;;;;5.36;69.72;98194.02;377112;104;1961973;-69
2021/03/16 04:19:31;;;;;;;28.23;17.49;;;;;;;5.38;69.52;98196.50;377580;105;1964043;-70
2021/03/16 04:20:56;;;;;;;26.34;18.66;;;;;;;5.39;69.52;98198.12;378350;105;1961942;-69
2021/03/16 04:22:22;;;;;;;25.47;17.21;;;;;;;5.32;69.45;98200.83;353442;105;2390077;-69
2021/03/16 04:23:47;;;;;;;27.94;19.33;;;;;;;5.20;69.62;98195.27;342593;106;1962929;-70
2021/03/16 04:25:11;;;;;;;27.83;19.45;;;;;;;5.08;69.79;98191.59;356974;106;2294029;-69
2021/03/16 04:26:37;;;;;;;28.31;19.27;;;;;;;4.96;69.84;98199.41;377624;106;1961936;-70
2021/03/16 04:28:00;;;;;;;29.56;18.87;;;;;;;4.82;70.14;98190.55;372536;107;1963998;-70
2021/03/16 04:29:25;;;;;;;25.43;17.71;;;;;;;4.72;70.45;98200.83;300470;109;2224966;-70
2021/03/16 04:30:50;;;;;;;34.02;18.05;;;;;;;4.63;70.53;98194.02;367616;105;2927948;-71
2021/03/16 04:32:14;;;;;;;23.88;16.12;;;;;;;4.58;70.69;98200.00;368300;103;1960774;-71
2021/03/16 04:33:38;;;;;;;23.61;15.07;;;;;;;4.58;70.96;98199.18;360256;110;1963026;-70
2021/03/16 04:35:04;;;;;;;22.31;13.87;;;;;;;4.62;71.01;98198.55;357816;111;1961978;-70
2021/03/16 04:36:28;;;;;;;20.82;14.44;;;;;;;4.69;70.90;98203.92;358057;111;1961954;-70
2021/03/16 04:37:52;;;;;;;26.47;15.41;;;;;;;4.75;70.73;98195.06;360050;111;1962994;-69
2021/03/16 04:39:16;;;;;;;21.71;14.32;;;;;;;4.83;70.53;98194.05;357693;111;1961929;-70
2021/03/16 04:40:43;;;;;;;23.41;14.52;;;;;;;4.89;70.36;98197.75;358614;111;1961965;-69
2021/03/16 04:42:07;;;;;;;23.67;14.58;;;;;;;4.93;70.10;98196.33;357988;111;1961922;-70
2021/03/16 04:43:30;;;;;;;25.33;15.29;;;;;;;4.98;69.96;98205.38;349468;111;1962965;-70
2021/03/16 04:44:55;;;;;;;25.73;15.43;;;;;;;5.02;69.87;98209.27;327162;107;2531961;-70
2021/03/16 04:46:19;;;;;;;24.27;15.76;;;;;;;5.10;69.93;98210.92;309156;111;2117605;-69
2021/03/16 04:47:43;;;;;;;25.63;16.59;;;;;;;5.15;69.56;98199.61;355853;111;1961935;-70
2021/03/16 04:49:08;;;;;;;27.16;17.12;;;;;;;5.11;69.66;98207.23;347553;114;1962992;-70
2021/03/16 04:50:32;;;;;;;25.92;16.64;;;;;;;5.04;69.85;98199.19;349226;114;1962985;-70
2021/03/16 04:51:56;;;;;;;27.14;17.49;;;;;;;4.97;69.89;98198.36;348103;114;1961027;-70
2021/03/16 04:53:19;;;;;;;29.41;18.06;;;;;;;4.92;69.93;98200.86;348560;114;1962695;-70
2021/03/16 04:54:43;;;;;;;26.00;17.29;;;;;;;4.85;69.82;98198.16;330150;114;1963857;-70
2021/03/16 04:56:07;;;;;;;26.67;19.51;;;;;;;4.80;69.97;98205.16;326161;114;2339954;-71
2021/03/16 04:57:43;;;;;;;28.18;18.78;;;;;;;4.74;70.01;98200.64;347465;114;1961994;-71
2021/03/16 04:59:07;;;;;;;27.37;16.59;;;;;;;4.68;70.16;98201.44;336769;114;1961881;-69
2021/03/16 05:00:31;;;;;;;23.98;16.22;;;;;;;4.60;70.50;98211.33;300571;112;2117940;-70
2021/03/16 05:01:56;;;;;;;26.58;15.38;;;;;;;4.59;70.46;98206.98;348585;114;1964809;-70
2021/03/16 05:03:20;;;;;;;25.10;15.18;;;;;;;4.61;70.56;98204.94;355525;112;1961972;-70
2021/03/16 05:04:44;;;;;;;27.58;14.62;;;;;;;4.70;70.54;98210.09;356217;112;1962006;-70
2021/03/16 05:06:09;;;;;;;23.59;13.39;;;;;;;4.78;70.30;98212.56;356660;112;1961970;-70
2021/03/16 05:07:33;;;;;;;23.90;14.32;;;;;;;4.87;69.99;98214.02;349601;114;1962933;-70
2021/03/16 05:08:57;;;;;;;23.86;16.42;;;;;;;4.96;69.92;98211.97;325817;112;1962953;-70
2021/03/16 05:10:23;;;;;;;23.84;14.57;;;;;;;5.06;69.53;98217.73;355774;112;1963984;-70
2021/03/16 05:11:47;;;;;;;24.66;15.42;;;;;;;5.12;69.39;98213.41;356033;112;1961883;-70
2021/03/16 05:13:11;;;;;;;23.23;15.99;;;;;;;5.08;69.15;98213.00;321226;112;1966113;-71
2021/03/16 05:14:35;;;;;;;25.16;15.78;;;;;;;5.03;69.17;98212.80;315631;112;2728960;-71
2021/03/16 05:16:01;;;;;;;24.01;16.18;;;;;;;4.97;69.15;98201.03;347186;112;1961988;-70
2021/03/16 05:17:26;;;;;;;29.56;18.23;;;;;;;4.93;69.16;98210.52;355751;112;1961973;-70
2021/03/16 05:18:51;;;;;;;28.43;18.70;;;;;;;4.84;68.61;98206.38;356408;112;1961967;-69
2021/03/16 05:20:16;;;;;;;33.06;20.02;;;;;;;4.80;68.71;98213.19;356128;112;1962923;-70
2021/03/16 05:21:41;;;;;;;29.53;19.64;;;;;;;4.75;68.79;98218.33;355605;112;1961957;-70
2021/03/16 05:23:05;;;;;;;33.62;20.21;;;;;;;4.72;68.86;98210.72;355143;112;1961911;-70
2021/03/16 05:24:28;;;;;;;30.50;21.29;;;;;;;4.68;68.75;98207.60;339188;112;1961973;-70
2021/03/16 05:25:52;;;;;;;35.36;21.17;;;;;;;4.62;68.82;98208.42;335304;112;2337999;-68
2021/03/16 05:27:17;;;;;;;31.73;19.83;;;;;;;4.58;69.15;98205.34;324745;114;2501964;-69
2021/03/16 05:28:42;;;;;;;33.91;22.12;;;;;;;4.57;69.13;98208.21;322169;112;1975181;-69
2021/03/16 05:30:08;;;;;;;32.64;20.68;;;;;;;4.56;68.96;98215.41;338778;112;2278992;-69
2021/03/16 05:31:32;;;;;;;37.74;24.84;;;;;;;4.54;69.09;98213.97;356386;112;1961995;-69
2021/03/16 05:32:57;;;;;;;37.22;23.14;;;;;;;4.53;69.00;98217.68;348898;112;1962028;-70
2021/03/16 05:34:21;;;;;;;35.67;22.78;;;;;;;4.50;69.11;98215.39;357426;112;1963891;-69
2021/03/16 05:35:46;;;;;;;32.69;22.10;;;;;;;4.50;68.96;98218.06;347623;114;1963931;-69
2021/03/16 05:37:10;;;;;;;36.89;21.66;;;;;;;4.48;68.82;98207.59;343978;112;1962016;-69
2021/03/16 05:38:34;;;;;;;35.93;22.87;;;;;;;4.49;68.78;98219.10;326609;114;1962095;-69
2021/03/16 05:39:58;;;;;;;36.16;23.81;;;;;;;4.45;68.67;98212.52;334692;112;2223995;-69
2021/03/16 05:41:23;;;;;;;34.94;23.25;;;;;;;4.45;68.62;98212.52;315722;112;2896951;-69
2021/03/16 05:42:47;;;;;;;33.82;20.76;;;;;;;4.41;68.62;98220.11;332040;112;2433926;-71
2021/03/16 05:44:12;;;;;;;33.86;20.48;;;;;;;4.42;68.44;98219.10;311663;112;2802912;-70
2021/03/16 05:45:39;;;;;;;36.06;21.12;;;;;;;4.41;68.41;98222.78;327721;112;2478978;-70
2021/03/16 05:47:03;;;;;;;36.94;21.48;;;;;;;4.41;68.61;98225.45;348717;114;1962014;-70
2021/03/16 05:48:29;;;;;;;36.05;21.58;;;;;;;4.42;68.61;98227.13;355296;112;1962062;-70
2021/03/16 05:49:56;;;;;;;35.93;22.36;;;;;;;4.45;68.44;98223.22;356249;112;1961941;-71
2021/03/16 05:51:20;;;;;;;30.81;20.75;;;;;;;4.46;68.51;98220.33;341485;112;2221974;-70
2021/03/16 05:52:45;;;;;;;33.45;21.64;;;;;;;4.48;68.20;98223.63;337913;112;2292080;-70
2021/03/16 05:54:10;;;;;;;35.50;21.55;;;;;;;4.48;68.28;98222.81;320444;114;2510889;-70
2021/03/16 05:55:45;;;;;;;34.06;21.12;;;;;;;4.50;68.15;98229.61;329051;112;2213716;-70
2021/03/16 05:57:08;;;;;;;37.99;23.36;;;;;;;4.51;68.37;98231.24;344553;110;1961933;-69
2021/03/16 05:58:35;;;;;;;34.84;22.36;;;;;;;4.55;68.38;98228.98;308936;110;2182262;-70